createdAt,value
2019-03-25T00:04:35.912Z,101081.50
2019-03-25T00:09:38.577Z,101075.19
2019-03-25T00:14:44.765Z,101067.44
2019-03-25T00:19:52.638Z,101062.48
2019-03-25T00:24:58.534Z,101064.61
2019-03-25T00:30:06.173Z,101055.38
2019-03-25T00:35:13.523Z,101049.84
2019-03-25T00:40:20.607Z,101046.00
2019-03-25T00:45:27.659Z,101038.80
2019-03-25T00:50:38.397Z,101026.77
2019-03-25T00:55:46.192Z,101012.98
2019-03-25T01:00:52.465Z,101002.06
2019-03-25T01:06:01.604Z,100979.76
2019-03-25T01:11:06.939Z,100965.86
2019-03-25T01:16:13.338Z,100959.55
2019-03-25T01:21:20.778Z,100951.61
2019-03-25T01:26:29.936Z,100939.78
2019-03-25T01:31:37.446Z,100928.21
2019-03-25T01:36:44.266Z,100922.53
2019-03-25T01:41:49.518Z,100915.49
2019-03-25T01:46:55.369Z,100900.22
2019-03-25T01:52:00.477Z,100891.82
2019-03-25T01:57:09.018Z,100885.08
2019-03-25T02:02:34.372Z,100883.74
2019-03-25T02:07:41.031Z,100871.98
2019-03-25T02:12:43.842Z,100865.00
2019-03-25T02:17:46.296Z,100861.88
2019-03-25T02:22:53.825Z,100850.45
2019-03-25T02:27:58.711Z,100834.61
2019-03-25T02:33:05.987Z,100837.27
2019-03-25T02:38:12.525Z,100821.62
2019-03-25T02:43:17.139Z,100818.90
2019-03-25T02:48:25.466Z,100810.14
2019-03-25T02:53:32.039Z,100805.41
2019-03-25T02:58:38.303Z,100795.48
2019-03-25T03:03:43.418Z,100774.47
2019-03-25T03:08:48.585Z,100769.72
2019-03-25T03:13:54.070Z,100759.87
2019-03-25T03:18:59.049Z,100763.09
2019-03-25T03:24:10.176Z,100742.39
2019-03-25T03:29:15.298Z,100747.05
2019-03-25T03:34:23.230Z,100732.67
2019-03-25T03:39:30.149Z,100707.63
2019-03-25T03:44:37.714Z,100704.41
2019-03-25T03:49:46.707Z,100699.55
2019-03-25T03:54:56.230Z,100702.01
2019-03-25T04:00:02.080Z,100688.81
2019-03-25T04:05:08.605Z,100689.27
2019-03-25T04:10:15.267Z,100671.00
2019-03-25T04:15:29.558Z,100660.13
2019-03-25T04:20:37.827Z,100654.39
2019-03-25T04:25:43.374Z,100629.46
2019-03-25T04:30:49.686Z,100627.31
2019-03-25T04:36:00.391Z,100624.69
2019-03-25T04:41:06.333Z,100593.28
2019-03-25T04:46:12.950Z,100595.33
2019-03-25T04:51:20.435Z,100592.81
2019-03-25T04:56:38.959Z,100577.38
2019-03-25T05:01:36.086Z,100573.61
2019-03-25T05:06:42.830Z,100568.41
2019-03-25T05:11:50.119Z,100558.45
2019-03-25T05:16:57.119Z,100554.53
2019-03-25T05:22:02.241Z,100551.77
2019-03-25T05:27:08.889Z,100529.56
2019-03-25T05:32:14.630Z,100532.02
2019-03-25T05:37:20.039Z,100532.41
2019-03-25T05:42:25.629Z,100523.59
2019-03-25T05:47:31.707Z,100523.85
2019-03-25T05:52:36.940Z,100527.70
2019-03-25T05:57:42.553Z,100530.38
2019-03-25T06:02:47.276Z,100535.66
2019-03-25T06:07:55.062Z,100525.73
2019-03-25T06:13:02.656Z,100516.00
2019-03-25T06:18:13.432Z,100524.51
2019-03-25T06:23:19.777Z,100537.77
2019-03-25T06:28:29.480Z,100524.84
2019-03-25T06:33:35.751Z,100533.22
2019-03-25T06:39:01.869Z,100528.17
2019-03-25T06:44:10.084Z,100524.05
2019-03-25T06:49:15.634Z,100532.45
2019-03-25T06:54:21.589Z,100535.28
2019-03-25T06:59:27.726Z,100537.95
2019-03-25T07:04:30.020Z,100542.95
2019-03-25T07:16:06.051Z,100541.14
2019-03-25T07:21:12.685Z,100548.06
2019-03-25T07:26:20.222Z,100543.23
2019-03-25T07:31:25.853Z,100540.41
2019-03-25T07:36:32.050Z,100551.81
2019-03-25T07:41:38.369Z,100558.39
2019-03-25T07:46:44.381Z,100556.03
2019-03-25T07:51:50.110Z,100557.75
2019-03-25T07:56:55.659Z,100549.88
2019-03-25T08:02:01.455Z,100560.61
2019-03-25T08:07:07.016Z,100563.14
2019-03-25T08:12:12.587Z,100566.17
2019-03-25T08:17:18.143Z,100573.17
2019-03-25T08:22:23.855Z,100577.98
2019-03-25T08:27:29.848Z,100577.84
2019-03-25T08:32:35.403Z,100582.17
2019-03-25T08:37:41.850Z,100580.78
2019-03-25T08:42:47.986Z,100586.08
2019-03-25T08:47:53.610Z,100588.94
2019-03-25T08:52:59.390Z,100593.20
2019-03-25T08:58:11.986Z,100595.29
2019-03-25T09:03:13.970Z,100594.71
2019-03-25T09:08:20.547Z,100613.34
2019-03-25T09:13:27.744Z,100623.85
2019-03-25T09:18:33.766Z,100617.92
2019-03-25T09:23:40.976Z,100629.13
2019-03-25T09:28:46.917Z,100634.70
2019-03-25T09:33:53.010Z,100631.62
2019-03-25T09:38:58.711Z,100650.64
2019-03-25T09:44:05.997Z,100636.69
2019-03-25T09:49:11.616Z,100638.80
2019-03-25T09:54:17.366Z,100637.09
2019-03-25T09:59:23.146Z,100635.86
2019-03-25T10:04:29.096Z,100632.80
2019-03-25T10:09:35.906Z,100639.06
2019-03-25T10:14:41.456Z,100649.50
2019-03-25T10:19:47.918Z,100654.63
2019-03-25T10:24:55.056Z,100671.15
2019-03-25T10:30:01.282Z,100679.03
2019-03-25T10:35:08.439Z,100678.70
2019-03-25T10:40:16.343Z,100670.30
2019-03-25T10:45:23.848Z,100677.57
2019-03-25T10:50:29.768Z,100673.53
2019-03-25T10:55:35.314Z,100671.02
2019-03-25T11:00:40.959Z,100674.86
2019-03-25T11:05:46.818Z,100674.55
2019-03-25T11:10:53.216Z,100677.53
2019-03-25T11:15:58.902Z,100682.00
2019-03-25T11:21:05.759Z,100689.44
2019-03-25T11:26:11.736Z,100683.52
2019-03-25T11:31:17.584Z,100698.66
2019-03-25T11:36:23.134Z,100679.66
2019-03-25T11:41:29.748Z,100685.81
2019-03-25T11:46:35.442Z,100683.08
2019-03-25T11:51:41.208Z,100695.30
2019-03-25T11:56:47.482Z,100683.25
2019-03-25T12:01:54.534Z,100675.26
2019-03-25T12:07:01.016Z,100657.13
2019-03-25T12:12:06.892Z,100665.88
2019-03-25T12:17:12.692Z,100672.47
2019-03-25T12:22:18.332Z,100678.66
2019-03-25T12:27:24.226Z,100690.20
2019-03-25T12:32:30.065Z,100688.82
2019-03-25T12:37:35.678Z,100689.50
2019-03-25T12:42:42.558Z,100694.13
2019-03-25T12:47:48.572Z,100687.93
2019-03-25T12:52:55.314Z,100692.52
2019-03-25T12:58:02.585Z,100682.43
2019-03-25T13:03:11.494Z,100713.61
2019-03-25T13:08:17.395Z,100712.80
2019-03-25T13:13:23.033Z,100718.03
2019-03-25T13:18:28.900Z,100706.77
2019-03-25T13:23:35.548Z,100710.19
2019-03-25T13:28:42.117Z,100710.31
2019-03-25T13:33:48.221Z,100713.28
2019-03-25T13:38:54.336Z,100713.85
2019-03-25T13:44:00.134Z,100745.04
2019-03-25T13:49:06.161Z,100770.34
2019-03-25T13:54:11.958Z,100805.60
2019-03-25T13:59:17.604Z,100803.42
2019-03-25T14:04:23.743Z,100818.22
2019-03-25T14:09:29.391Z,100819.20
2019-03-25T14:14:36.586Z,100823.28
2019-03-25T14:19:42.284Z,100821.94
2019-03-25T14:24:48.796Z,100818.17
2019-03-25T14:29:55.259Z,100826.81
2019-03-25T14:35:02.514Z,100824.05
2019-03-25T14:40:08.623Z,100837.64
2019-03-25T14:45:26.108Z,100837.97
2019-03-25T14:50:24.748Z,100836.87
2019-03-25T14:55:30.829Z,100843.64
2019-03-25T15:00:37.010Z,100845.50
2019-03-25T15:05:44.282Z,100857.66
2019-03-25T15:10:53.738Z,100853.59
2019-03-25T15:15:57.781Z,100871.97
2019-03-25T15:21:04.910Z,100870.58
2019-03-25T15:26:10.733Z,100882.27
2019-03-25T15:31:19.182Z,100887.92
2019-03-25T15:36:25.726Z,100890.84
2019-03-25T15:41:31.819Z,100886.98
2019-03-25T15:46:39.048Z,100895.11
2019-03-25T15:51:46.441Z,100905.84
2019-03-25T15:56:52.983Z,100918.73
2019-03-25T16:01:59.460Z,100929.93
2019-03-25T16:07:06.890Z,100933.98
2019-03-25T16:12:15.055Z,100952.51
2019-03-25T16:17:21.030Z,100952.02
2019-03-25T16:22:26.681Z,100967.05
2019-03-25T16:27:34.292Z,100978.70
2019-03-25T16:32:41.224Z,100982.48
2019-03-25T16:37:48.570Z,100987.45
2019-03-25T16:42:54.583Z,100988.16
2019-03-25T16:48:00.446Z,100994.57
2019-03-25T16:53:06.420Z,101011.52
2019-03-25T16:58:12.980Z,101015.12
2019-03-25T17:03:19.106Z,101022.44
2019-03-25T17:08:26.626Z,101036.58
2019-03-25T17:13:32.504Z,101043.42
2019-03-25T17:18:39.042Z,101049.52
2019-03-25T17:23:44.964Z,101059.53
2019-03-25T17:28:50.552Z,101072.98
2019-03-25T17:33:57.080Z,101074.06
2019-03-25T17:39:03.578Z,101095.16
2019-03-25T17:44:10.512Z,101103.42
2019-03-25T17:49:17.953Z,101108.16
2019-03-25T17:54:23.986Z,101122.58
2019-03-25T17:59:30.320Z,101136.62
2019-03-25T18:04:37.612Z,101147.77
2019-03-25T18:09:44.814Z,101165.83
2019-03-25T18:14:50.441Z,101183.63
2019-03-25T18:19:56.441Z,101195.34
2019-03-25T18:25:02.447Z,101201.63
2019-03-25T18:30:09.071Z,101210.19
2019-03-25T18:35:18.206Z,101221.92
2019-03-25T18:40:24.171Z,101243.87
2019-03-25T18:45:30.867Z,101252.55
2019-03-25T18:50:36.661Z,101256.34
2019-03-25T18:55:42.663Z,101261.79
2019-03-25T19:00:48.821Z,101266.97
2019-03-25T19:05:54.380Z,101284.37
2019-03-25T19:11:00.082Z,101285.45
2019-03-25T19:16:05.968Z,101292.68
2019-03-25T19:21:12.751Z,101296.30
2019-03-25T19:26:19.157Z,101312.22
2019-03-25T19:31:25.319Z,101317.09
2019-03-25T19:36:31.083Z,101329.95
2019-03-25T19:41:37.185Z,101333.19
2019-03-25T19:46:43.140Z,101340.03
2019-03-25T19:51:49.158Z,101354.36
2019-03-25T19:56:55.007Z,101367.91
2019-03-25T20:02:00.575Z,101377.64
2019-03-25T20:07:06.634Z,101388.31
2019-03-25T20:12:14.387Z,101396.64
2019-03-25T20:17:20.481Z,101404.19
2019-03-25T20:22:26.492Z,101417.64
2019-03-25T20:27:32.409Z,101415.34
2019-03-25T20:32:38.182Z,101430.34
2019-03-25T20:37:44.480Z,101436.33
2019-03-25T20:42:50.627Z,101439.15
2019-03-25T20:47:56.453Z,101447.41
2019-03-25T20:53:02.392Z,101455.28
2019-03-25T20:58:08.522Z,101461.77
2019-03-25T21:03:14.857Z,101467.45
2019-03-25T21:08:20.541Z,101481.56
2019-03-25T21:13:27.056Z,101483.08
2019-03-25T21:18:33.292Z,101488.60
2019-03-25T21:23:40.449Z,101510.67
2019-03-25T21:28:46.575Z,101533.46
2019-03-25T21:33:52.423Z,101541.44
2019-03-25T21:38:58.126Z,101549.84
2019-03-25T21:44:06.548Z,101559.37
2019-03-25T21:49:12.123Z,101564.27
2019-03-25T21:54:17.991Z,101559.02
2019-03-25T21:59:24.485Z,101558.87
2019-03-25T22:04:33.752Z,101555.48
2019-03-25T22:09:40.813Z,101558.21
2019-03-25T22:14:46.606Z,101571.86
2019-03-25T22:19:52.718Z,101572.17
2019-03-25T22:25:01.332Z,101590.13
2019-03-25T22:30:08.480Z,101596.34
2019-03-25T22:35:14.573Z,101597.16
2019-03-25T22:40:20.609Z,101601.66
2019-03-25T22:45:30.536Z,101607.14
2019-03-25T22:50:36.955Z,101617.98
2019-03-25T22:55:42.994Z,101621.60
2019-03-25T23:00:50.053Z,101621.88
2019-03-25T23:05:57.100Z,101620.31
2019-03-25T23:11:03.539Z,101627.97
2019-03-25T23:16:10.426Z,101631.73
2019-03-25T23:21:16.497Z,101650.33
2019-03-25T23:26:23.427Z,101661.55
2019-03-25T23:31:29.631Z,101672.81
2019-03-25T23:36:36.075Z,101675.69
2019-03-25T23:41:41.890Z,101687.59
2019-03-25T23:46:47.618Z,101684.08
2019-03-25T23:51:53.695Z,101690.20
2019-03-25T23:56:59.830Z,101693.88
